Time;durP1;ratioP1;P1;durP2;ratioP2;P2;SDS_P1;SDS_P2;PMS_P1;PMS_P2;Temp;Humidity;BMP_temperature;BMP_pressure;BME280_temperature;BME280_humidity;BME280_pressure;Samples;Min_cycle;Max_cycle;Signal;HPM_P1;HPM_P2
2022/10/16 00:00:22;;;;;;;6.10;5.57;;;;;;;14.47;70.85;100187.34;5073579;28;20192;-61
2022/10/16 00:02:49;;;;;;;8.10;5.33;;;;;;;14.41;71.45;100190.84;5072629;28;20265;-61
2022/10/16 00:05:15;;;;;;;6.93;6.33;;;;;;;14.26;71.21;100202.72;5072311;28;20725;-61
2022/10/16 00:07:42;;;;;;;6.90;6.40;;;;;;;14.15;70.96;100196.09;5072586;28;20192;-61
2022/10/16 00:10:10;;;;;;;9.13;6.60;;;;;;;14.08;70.80;100195.25;5071568;28;20196;-61
2022/10/16 00:12:37;;;;;;;6.40;5.83;;;;;;;14.06;70.77;100191.97;5073386;28;20189;-61
2022/10/16 00:15:04;;;;;;;6.00;5.60;;;;;;;14.01;70.71;100189.06;5072109;28;20200;-61
2022/10/16 00:17:31;;;;;;;5.70;5.30;;;;;;;14.06;71.05;100197.31;5072236;28;20670;-61
2022/10/16 00:19:58;;;;;;;6.80;5.47;;;;;;;14.03;70.83;100203.06;5071210;28;20192;-61
2022/10/16 00:22:25;;;;;;;6.67;6.07;;;;;;;14.04;70.67;100204.69;5072418;28;20245;-61
2022/10/16 00:24:52;;;;;;;6.23;5.73;;;;;;;14.04;70.65;100204.69;5071946;28;20245;-61
2022/10/16 00:27:20;;;;;;;7.00;6.40;;;;;;;14.00;71.05;100213.28;5072040;28;20192;-61
2022/10/16 00:29:50;;;;;;;7.10;6.40;;;;;;;13.90;71.55;100199.50;5071874;28;20200;-61
2022/10/16 00:32:17;;;;;;;8.40;6.07;;;;;;;13.83;72.16;100201.31;5072042;28;20246;-61
2022/10/16 00:34:44;;;;;;;7.47;5.67;;;;;;;13.79;72.30;100198.22;5072236;28;20196;-61
2022/10/16 00:37:11;;;;;;;6.87;5.80;;;;;;;13.80;71.92;100202.53;5072230;28;20241;-61
2022/10/16 00:39:38;;;;;;;6.27;5.67;;;;;;;13.74;72.31;100210.53;5072022;28;20228;-61
2022/10/16 00:42:04;;;;;;;5.97;5.53;;;;;;;13.63;73.14;100206.59;5071869;28;20199;-61
2022/10/16 00:44:52;;;;;;;6.97;6.20;;;;;;;13.43;73.77;100205.66;5072123;28;20195;-61
2022/10/16 00:47:23;;;;;;;6.80;6.10;;;;;;;13.28;73.81;100218.28;5072139;28;20184;-60
2022/10/16 00:49:53;;;;;;;6.83;6.33;;;;;;;13.11;75.48;100213.47;5072321;28;20188;-60
2022/10/16 00:52:20;;;;;;;7.30;6.60;;;;;;;13.05;75.19;100212.38;5071957;28;20552;-60
2022/10/16 00:54:48;;;;;;;7.93;6.53;;;;;;;12.91;75.99;100218.59;5071696;28;20202;-60
2022/10/16 00:57:15;;;;;;;6.90;6.47;;;;;;;12.84;76.70;100230.22;5072370;28;20256;-60
2022/10/16 00:59:43;;;;;;;8.50;6.67;;;;;;;12.80;76.73;100221.81;5071816;28;20241;-60
2022/10/16 01:02:14;;;;;;;6.23;5.73;;;;;;;12.85;76.58;100232.72;5071688;28;20200;-60
2022/10/16 01:04:44;;;;;;;7.13;6.53;;;;;;;12.84;76.80;100236.41;5071661;28;20728;-61
2022/10/16 01:07:15;;;;;;;6.67;6.20;;;;;;;12.86;76.93;100239.69;5071680;28;20256;-61
2022/10/16 01:09:53;;;;;;;7.00;6.30;;;;;;;12.82;76.86;100248.28;5072389;28;20187;-61
2022/10/16 01:12:27;;;;;;;10.53;6.77;;;;;;;12.78;77.01;100253.16;5073074;28;20313;-60
2022/10/16 01:14:56;;;;;;;9.63;6.37;;;;;;;12.74;77.11;100262.53;5071558;28;20704;-60
2022/10/16 01:17:35;;;;;;;6.90;6.20;;;;;;;12.67;77.72;100251.00;5072333;28;20198;-61
2022/10/16 01:20:08;;;;;;;7.60;6.93;;;;;;;12.63;78.03;100257.75;5071730;28;20253;-61
2022/10/16 01:22:44;;;;;;;6.73;6.13;;;;;;;12.61;79.15;100262.41;5072477;28;20187;-61
2022/10/16 01:25:19;;;;;;;6.90;6.40;;;;;;;12.56;78.90;100262.19;5072064;28;20184;-61
2022/10/16 01:27:49;;;;;;;9.30;6.83;;;;;;;12.52;79.79;100257.41;5071840;28;20192;-61
2022/10/16 01:30:21;;;;;;;9.27;6.90;;;;;;;12.47;79.73;100255.31;5052704;28;20194;-60
2022/10/16 01:32:53;;;;;;;7.40;6.70;;;;;;;12.49;79.60;100268.47;5055277;28;20237;-60
2022/10/16 01:35:26;;;;;;;9.10;6.87;;;;;;;12.37;79.15;100268.09;5055173;28;20191;-60
2022/10/16 01:37:59;;;;;;;9.93;6.93;;;;;;;12.20;79.74;100266.69;5055190;28;20238;-60
2022/10/16 01:40:28;;;;;;;9.33;7.47;;;;;;;12.20;79.70;100271.19;5055491;28;20242;-61
2022/10/16 01:43:00;;;;;;;7.93;7.03;;;;;;;12.22;79.96;100278.00;5055532;28;20195;-60
2022/10/16 01:45:31;;;;;;;7.80;7.30;;;;;;;12.21;79.70;100271.00;5054976;28;20679;-60
2022/10/16 01:47:59;;;;;;;7.73;7.13;;;;;;;12.15;79.76;100279.75;5055847;28;20190;-60
2022/10/16 01:50:28;;;;;;;9.27;7.87;;;;;;;12.15;80.10;100286.91;5054826;28;20198;-60
2022/10/16 01:52:57;;;;;;;8.17;7.27;;;;;;;12.14;79.95;100286.09;5055127;28;20192;-61
2022/10/16 01:55:30;;;;;;;10.77;7.03;;;;;;;12.12;80.00;100282.78;5055305;28;20255;-60
2022/10/16 01:58:02;;;;;;;7.83;7.00;;;;;;;12.09;80.37;100282.34;5056992;28;20197;-60
2022/10/16 02:00:31;;;;;;;8.70;7.87;;;;;;;12.04;80.37;100288.22;5074657;28;20191;-60
2022/10/16 02:02:59;;;;;;;10.43;7.03;;;;;;;12.00;81.41;100280.78;5074974;28;20636;-60
2022/10/16 02:05:30;;;;;;;9.13;6.90;;;;;;;11.94;81.11;100285.03;5074486;28;20216;-60
2022/10/16 02:07:57;;;;;;;9.63;7.50;;;;;;;11.90;81.46;100283.75;5075206;28;20192;-61
2022/10/16 02:10:25;;;;;;;9.63;7.07;;;;;;;11.89;82.05;100281.25;5074808;28;20633;-61
2022/10/16 02:12:59;;;;;;;7.53;6.97;;;;;;;11.82;81.53;100281.19;5074601;28;20192;-61
2022/10/16 02:15:26;;;;;;;9.10;7.20;;;;;;;11.83;81.59;100281.97;5075120;28;20190;-61
2022/10/16 02:17:53;;;;;;;8.47;7.70;;;;;;;11.76;80.97;100281.09;5074803;28;20195;-60
2022/10/16 02:20:23;;;;;;;8.10;7.30;;;;;;;11.66;80.50;100292.00;5074677;28;20225;-60
2022/10/16 02:22:51;;;;;;;9.10;8.40;;;;;;;11.54;81.03;100296.09;5075514;28;20599;-60
2022/10/16 02:25:24;;;;;;;10.23;7.50;;;;;;;11.40;82.01;100291.59;5074591;28;20197;-60
2022/10/16 02:27:56;;;;;;;8.87;8.00;;;;;;;11.31;82.47;100292.66;5074383;28;20326;-60
2022/10/16 02:30:28;;;;;;;10.50;8.37;;;;;;;11.32;82.00;100294.34;5054125;28;20646;-60
2022/10/16 02:32:58;;;;;;;9.37;8.00;;;;;;;11.29;82.71;100291.19;5054181;28;20181;-60
2022/10/16 02:35:27;;;;;;;9.33;8.50;;;;;;;11.31;81.94;100300.66;5053989;28;20772;-60
2022/10/16 02:37:55;;;;;;;12.50;8.97;;;;;;;11.29;82.01;100294.69;5054035;28;20673;-60
2022/10/16 02:40:22;;;;;;;10.53;9.53;;;;;;;11.30;82.00;100304.31;5054435;28;20221;-60
2022/10/16 02:42:52;;;;;;;11.20;9.80;;;;;;;11.27;82.48;100304.66;5053259;28;20258;-60
2022/10/16 02:45:19;;;;;;;17.40;11.20;;;;;;;11.18;83.27;100295.13;5053878;28;20275;-60
2022/10/16 02:47:48;;;;;;;12.03;10.83;;;;;;;11.22;83.72;100295.59;5053837;28;20240;-60
2022/10/16 02:50:14;;;;;;;12.50;11.13;;;;;;;11.27;83.48;100307.34;5053707;28;20669;-60
2022/10/16 02:52:41;;;;;;;15.70;11.00;;;;;;;11.29;82.89;100305.34;5053660;28;20263;-60
2022/10/16 02:55:08;;;;;;;12.80;11.50;;;;;;;11.32;82.44;100314.78;5054182;28;20193;-60
2022/10/16 02:57:36;;;;;;;15.30;10.13;;;;;;;11.31;82.88;100308.63;5054505;28;20201;-60
2022/10/16 03:00:04;;;;;;;14.53;10.43;;;;;;;11.30;82.79;100317.63;5073104;28;20227;-60
2022/10/16 03:02:31;;;;;;;11.27;10.20;;;;;;;11.31;82.93;100324.59;5073924;28;20251;-60
2022/10/16 03:04:59;;;;;;;11.37;10.17;;;;;;;11.31;82.78;100319.25;5073701;28;20227;-61
2022/10/16 03:07:25;;;;;;;12.50;9.77;;;;;;;11.30;83.17;100324.78;5073530;28;20725;-60
2022/10/16 03:09:52;;;;;;;11.63;10.13;;;;;;;11.30;83.74;100322.13;5073365;28;20255;-62
2022/10/16 03:12:19;;;;;;;11.70;10.60;;;;;;;11.32;83.00;100323.59;5074216;28;20242;-61
2022/10/16 03:14:46;;;;;;;16.07;10.60;;;;;;;11.31;83.20;100319.25;5073334;28;20197;-60
2022/10/16 03:17:13;;;;;;;11.90;10.60;;;;;;;11.33;82.52;100329.72;5073170;28;20223;-60
2022/10/16 03:19:40;;;;;;;12.90;11.27;;;;;;;11.32;82.96;100336.91;5073143;28;20730;-60
2022/10/16 03:22:08;;;;;;;14.97;10.87;;;;;;;11.31;83.20;100340.53;5073085;28;20194;-60
2022/10/16 03:24:35;;;;;;;13.03;10.10;;;;;;;11.32;83.14;100334.25;5073369;28;20259;-60
2022/10/16 03:27:01;;;;;;;12.80;10.70;;;;;;;11.35;83.18;100338.38;5073245;28;20250;-60
2022/10/16 03:29:29;;;;;;;12.30;10.63;;;;;;;11.38;83.25;100336.16;5072926;28;20247;-60
2022/10/16 03:31:56;;;;;;;14.40;10.57;;;;;;;11.34;83.42;100337.53;5073151;28;20285;-60
2022/10/16 03:34:23;;;;;;;10.87;9.77;;;;;;;11.36;84.00;100337.34;5073467;28;20617;-60
2022/10/16 03:36:49;;;;;;;11.43;9.67;;;;;;;11.37;83.69;100334.50;5072790;28;20201;-60
2022/10/16 03:39:17;;;;;;;16.30;10.00;;;;;;;11.37;83.23;100339.00;5073110;28;20582;-59
2022/10/16 03:41:46;;;;;;;12.20;10.20;;;;;;;11.35;83.86;100339.16;5073061;28;20196;-60
2022/10/16 03:44:12;;;;;;;17.30;10.33;;;;;;;11.30;83.89;100344.22;5072726;28;20665;-59
2022/10/16 03:46:39;;;;;;;11.50;10.33;;;;;;;11.32;84.12;100336.06;5072910;28;20259;-60
2022/10/16 03:49:06;;;;;;;10.77;9.53;;;;;;;11.39;83.88;100345.78;5072621;28;20254;-60
2022/10/16 03:51:33;;;;;;;10.23;9.00;;;;;;;11.41;83.58;100345.59;5072514;28;20727;-60
2022/10/16 03:53:59;;;;;;;12.23;10.00;;;;;;;11.42;83.60;100353.41;5073179;28;20198;-60
2022/10/16 03:56:27;;;;;;;12.30;9.43;;;;;;;11.42;83.83;100353.41;5072438;28;20201;-60
2022/10/16 03:58:54;;;;;;;10.23;9.37;;;;;;;11.40;84.38;100351.94;5072300;28;20194;-60
2022/10/16 04:01:21;;;;;;;15.80;9.07;;;;;;;11.27;84.92;100352.53;5072329;28;20192;-60
2022/10/16 04:03:47;;;;;;;16.20;9.33;;;;;;;11.21;85.53;100361.25;5073249;28;20193;-60
2022/10/16 04:06:14;;;;;;;12.37;9.57;;;;;;;11.22;85.52;100356.78;5072559;28;20192;-60
2022/10/16 04:08:43;;;;;;;12.40;9.60;;;;;;;11.18;85.43;100353.63;5072276;28;20731;-60
2022/10/16 04:11:10;;;;;;;11.07;9.17;;;;;;;11.25;85.16;100354.56;5072441;28;20306;-60
2022/10/16 04:13:38;;;;;;;11.17;8.67;;;;;;;11.27;84.96;100355.19;5072559;28;20201;-60
2022/10/16 04:16:05;;;;;;;9.40;8.43;;;;;;;11.24;85.21;100349.44;5071037;28;20710;-60
2022/10/16 04:18:32;;;;;;;8.83;8.07;;;;;;;11.26;85.04;100352.75;5050636;28;20728;-60
2022/10/16 04:21:03;;;;;;;9.33;8.43;;;;;;;11.25;84.24;100356.38;5052602;28;20286;-60
2022/10/16 04:23:30;;;;;;;15.13;9.90;;;;;;;11.17;84.29;100353.78;5052383;28;20247;-60
2022/10/16 04:25:57;;;;;;;11.63;8.63;;;;;;;11.16;84.74;100357.47;5063739;28;20196;-60
2022/10/16 04:28:23;;;;;;;11.40;8.40;;;;;;;11.04;85.35;100362.38;5067015;28;20631;-60
2022/10/16 04:30:51;;;;;;;9.40;8.53;;;;;;;11.01;85.91;100360.06;5051757;28;20200;-60
2022/10/16 04:33:18;;;;;;;13.97;9.03;;;;;;;10.93;86.27;100357.47;5051968;28;20247;-60
2022/10/16 04:35:45;;;;;;;9.43;8.50;;;;;;;10.91;86.54;100364.81;5052696;28;20260;-60
2022/10/16 04:38:12;;;;;;;10.70;9.53;;;;;;;10.94;86.34;100359.97;5051776;28;20193;-60
2022/10/16 04:40:38;;;;;;;10.53;9.50;;;;;;;10.98;85.72;100360.44;5052811;28;20243;-60
2022/10/16 04:43:07;;;;;;;9.47;8.50;;;;;;;11.00;85.18;100361.09;5051898;28;20550;-60
2022/10/16 04:45:33;;;;;;;8.67;7.83;;;;;;;10.99;85.10;100362.91;5052015;28;20193;-60
2022/10/16 04:48:01;;;;;;;9.77;8.80;;;;;;;10.99;85.78;100357.59;5052017;28;20200;-60
2022/10/16 04:50:28;;;;;;;13.53;8.53;;;;;;;10.97;85.93;100364.09;5052130;28;20197;-60
2022/10/16 04:52:55;;;;;;;11.07;8.40;;;;;;;10.95;85.18;100363.47;5051638;28;20189;-60
2022/10/16 04:55:22;;;;;;;11.47;8.00;;;;;;;10.95;85.55;100366.13;5051971;28;20248;-60
2022/10/16 04:57:49;;;;;;;8.57;7.97;;;;;;;10.97;85.41;100372.06;5052326;28;20193;-60
2022/10/16 05:00:16;;;;;;;12.97;9.20;;;;;;;10.95;84.99;100382.06;5072208;28;20231;-59
2022/10/16 05:02:43;;;;;;;14.30;8.70;;;;;;;10.88;85.94;100381.94;5071889;28;20356;-59
2022/10/16 05:05:11;;;;;;;9.03;8.20;;;;;;;10.94;85.85;100385.72;5073139;28;20193;-60
2022/10/16 05:07:38;;;;;;;12.70;8.60;;;;;;;11.01;85.97;100389.31;5075573;28;20257;-61
2022/10/16 05:10:05;;;;;;;10.57;8.63;;;;;;;11.12;85.42;100386.25;5076640;28;20197;-61
2022/10/16 05:12:33;;;;;;;9.00;8.10;;;;;;;11.27;85.19;100391.63;5075776;28;20273;-61
2022/10/16 05:14:59;;;;;;;8.20;7.63;;;;;;;11.61;86.04;100392.84;5075282;28;20269;-62
2022/10/16 05:17:26;;;;;;;8.97;8.13;;;;;;;11.99;83.29;100398.94;5075731;28;20255;-61
2022/10/16 05:19:53;;;;;;;8.57;7.97;;;;;;;12.21;80.98;100404.19;5075434;28;20275;-60
2022/10/16 05:22:21;;;;;;;9.77;8.07;;;;;;;12.62;79.93;100410.66;5075319;28;20193;-61
2022/10/16 05:24:48;;;;;;;7.70;7.13;;;;;;;13.19;81.61;100419.53;5075443;28;20665;-58
2022/10/16 05:27:18;;;;;;;7.83;7.03;;;;;;;13.35;76.25;100419.28;5075642;28;20190;-57
2022/10/16 05:29:46;;;;;;;11.07;7.50;;;;;;;13.43;75.22;100432.50;5075589;28;20219;-61
2022/10/16 05:32:13;;;;;;;9.33;8.43;;;;;;;13.54;74.57;100434.66;5075111;28;20197;-60
2022/10/16 05:34:40;;;;;;;8.13;7.33;;;;;;;13.56;73.19;100435.28;5075143;28;20199;-62
2022/10/16 05:37:06;;;;;;;11.83;8.23;;;;;;;13.53;73.52;100443.69;5074894;28;20749;-61
2022/10/16 05:39:36;;;;;;;9.70;7.67;;;;;;;13.34;73.97;100441.66;5075610;28;20289;-62
2022/10/16 05:42:03;;;;;;;9.23;8.20;;;;;;;13.26;74.16;100449.78;5075165;28;20731;-62
2022/10/16 05:44:30;;;;;;;12.47;7.90;;;;;;;13.15;74.41;100452.94;5074887;28;20658;-64
2022/10/16 05:46:56;;;;;;;10.40;8.20;;;;;;;13.31;77.31;100447.38;5075340;28;20188;-64
2022/10/16 05:49:23;;;;;;;8.50;7.70;;;;;;;13.71;72.85;100469.91;5075312;28;20512;-64
2022/10/16 05:51:50;;;;;;;13.23;8.70;;;;;;;13.83;72.63;100469.22;5074986;28;20267;-64
2022/10/16 05:54:16;;;;;;;8.70;7.80;;;;;;;14.03;71.86;100472.03;5075192;28;20203;-63
2022/10/16 05:56:45;;;;;;;10.27;7.67;;;;;;;14.72;71.01;100474.56;5075243;28;20191;-63
2022/10/16 05:59:11;;;;;;;7.40;6.70;;;;;;;15.29;66.29;100482.19;5074362;28;20200;-63
2022/10/16 06:01:38;;;;;;;7.90;5.80;;;;;;;15.71;69.00;100469.31;5075202;28;20224;-64
2022/10/16 06:04:05;;;;;;;7.60;5.70;;;;;;;15.98;67.32;100478.97;5074725;28;20196;-67
2022/10/16 06:06:31;;;;;;;7.30;6.60;;;;;;;16.68;64.98;100493.53;5073375;28;20250;-67
2022/10/16 06:08:59;;;;;;;9.50;5.80;;;;;;;17.41;62.41;100490.38;5074408;28;20246;-60
2022/10/16 06:11:28;;;;;;;7.37;6.13;;;;;;;17.49;58.92;100501.69;5074740;28;20314;-70
2022/10/16 06:13:58;;;;;;;8.17;6.37;;;;;;;17.47;57.90;100505.63;5074187;28;20234;-67
2022/10/16 06:16:25;;;;;;;12.47;6.53;;;;;;;17.53;59.21;100499.38;5074273;28;20551;-69
2022/10/16 06:18:53;;;;;;;7.33;6.50;;;;;;;17.57;58.23;100500.59;5074480;28;20201;-68
2022/10/16 06:21:22;;;;;;;7.33;6.73;;;;;;;17.36;59.16;100503.59;5074255;28;20775;-67
2022/10/16 06:23:48;;;;;;;8.33;5.80;;;;;;;17.12;60.72;100496.28;5074491;28;20198;-67
2022/10/16 06:26:18;;;;;;;13.27;6.53;;;;;;;16.99;60.40;100501.72;5074428;28;20188;-60
2022/10/16 06:28:44;;;;;;;5.50;5.10;;;;;;;17.31;61.13;100498.06;5065921;28;20199;-62
2022/10/16 06:31:13;;;;;;;7.67;5.50;;;;;;;17.41;58.82;100506.47;5053984;28;20691;-62
2022/10/16 06:33:41;;;;;;;6.17;5.67;;;;;;;17.31;59.01;100506.91;5053886;28;20250;-63
2022/10/16 06:36:09;;;;;;;6.13;5.37;;;;;;;17.67;60.56;100517.06;5055010;28;20191;-62
2022/10/16 06:38:36;;;;;;;9.40;6.20;;;;;;;18.06;56.79;100516.78;5053945;28;20665;-62
2022/10/16 06:41:04;;;;;;;6.17;5.60;;;;;;;18.06;56.90;100501.47;5063851;28;20215;-61
2022/10/16 06:43:32;;;;;;;6.73;6.20;;;;;;;18.30;55.83;100524.03;5063797;28;20598;-61
2022/10/16 06:46:01;;;;;;;10.07;5.53;;;;;;;18.53;56.85;100521.53;5062331;28;20279;-68
2022/10/16 06:48:29;;;;;;;8.03;5.67;;;;;;;19.17;55.47;100516.47;5063655;28;20194;-69
2022/10/16 06:50:58;;;;;;;10.77;5.47;;;;;;;19.92;53.10;100521.22;5064642;28;20196;-69
2022/10/16 06:53:25;;;;;;;6.00;5.43;;;;;;;20.45;50.73;100527.41;5062724;28;20645;-69
2022/10/16 06:55:51;;;;;;;5.60;5.20;;;;;;;20.63;49.91;100523.78;5054780;28;20196;-69
2022/10/16 06:58:18;;;;;;;5.43;5.03;;;;;;;20.31;49.70;100523.31;5059843;28;20195;-69
2022/10/16 07:00:45;;;;;;;6.37;5.73;;;;;;;20.38;50.04;100524.81;5063307;28;20217;-61
2022/10/16 07:03:11;;;;;;;7.43;5.47;;;;;;;20.55;49.06;100528.47;5062037;28;20193;-61
2022/10/16 07:05:40;;;;;;;5.80;5.20;;;;;;;20.63;49.38;100530.81;5063320;28;20668;-62
2022/10/16 07:08:07;;;;;;;5.97;5.13;;;;;;;20.81;49.65;100532.56;5063443;28;20254;-61
2022/10/16 07:10:34;;;;;;;6.23;5.20;;;;;;;21.16;49.06;100535.22;5061770;28;20212;-61
2022/10/16 07:13:01;;;;;;;5.43;5.03;;;;;;;21.60;48.05;100529.88;5067203;28;20620;-60
2022/10/16 07:15:28;;;;;;;12.30;5.67;;;;;;;21.98;45.71;100535.47;5073462;28;20199;-60
2022/10/16 07:17:55;;;;;;;5.10;4.80;;;;;;;22.29;46.26;100548.44;5073426;28;20257;-60
2022/10/16 07:20:22;;;;;;;7.63;4.80;;;;;;;22.50;44.22;100539.59;5073182;28;20223;-60
2022/10/16 07:22:50;;;;;;;7.97;5.87;;;;;;;22.45;44.72;100542.19;5073230;28;20203;-60
2022/10/16 07:25:17;;;;;;;7.60;5.73;;;;;;;22.44;44.11;100539.72;5073390;28;20192;-60
2022/10/16 07:27:43;;;;;;;8.63;5.17;;;;;;;21.98;45.01;100538.19;5073186;28;20250;-67
2022/10/16 07:30:11;;;;;;;7.90;5.87;;;;;;;21.58;46.29;100529.31;5072985;28;20196;-68
2022/10/16 07:32:38;;;;;;;7.27;5.77;;;;;;;21.53;46.97;100525.69;5073062;28;20192;-68
2022/10/16 07:35:06;;;;;;;5.80;5.40;;;;;;;21.60;46.65;100521.75;5072902;28;20192;-67
2022/10/16 07:37:32;;;;;;;8.47;4.93;;;;;;;21.47;49.83;100527.47;5073597;28;20195;-70
2022/10/16 07:40:00;;;;;;;6.07;5.33;;;;;;;21.77;46.22;100528.09;5072786;28;20192;-61
2022/10/16 07:42:28;;;;;;;6.13;5.63;;;;;;;21.59;47.01;100530.09;5072100;28;20192;-61
2022/10/16 07:44:55;;;;;;;8.50;5.03;;;;;;;21.70;46.41;100524.69;5072420;28;20192;-60
2022/10/16 07:47:21;;;;;;;6.10;5.50;;;;;;;21.55;47.39;100523.56;5072790;28;20566;-62
2022/10/16 07:49:48;;;;;;;6.80;4.87;;;;;;;21.62;46.82;100519.66;5072583;28;20195;-60
2022/10/16 07:52:15;;;;;;;6.67;5.63;;;;;;;21.50;47.01;100527.00;5072332;28;20200;-60
2022/10/16 07:54:42;;;;;;;6.40;5.73;;;;;;;21.34;47.59;100518.81;5073157;28;20234;-60
2022/10/16 07:57:10;;;;;;;6.20;5.00;;;;;;;21.39;47.37;100524.34;5072284;28;20243;-62
2022/10/16 07:59:36;;;;;;;11.97;5.47;;;;;;;21.51;47.82;100519.72;5071920;28;20196;-62
2022/10/16 08:02:03;;;;;;;6.10;5.30;;;;;;;21.72;46.97;100519.84;5072274;28;20595;-61
2022/10/16 08:04:30;;;;;;;6.20;5.13;;;;;;;22.02;46.22;100530.38;5071653;28;20191;-60
2022/10/16 08:06:57;;;;;;;5.27;4.80;;;;;;;22.04;45.05;100531.78;5072685;28;20703;-62
2022/10/16 08:09:23;;;;;;;6.20;5.67;;;;;;;22.19;45.49;100532.03;5072228;28;20196;-61
2022/10/16 08:11:51;;;;;;;5.00;4.70;;;;;;;22.47;44.57;100529.28;5073467;28;20228;-61
2022/10/16 08:14:19;;;;;;;5.23;4.67;;;;;;;22.71;43.89;100529.88;5072463;28;20285;-61
2022/10/16 08:16:46;;;;;;;5.57;4.67;;;;;;;22.71;44.18;100524.47;5072805;28;20242;-60
2022/10/16 08:19:13;;;;;;;5.40;4.87;;;;;;;22.81;43.60;100525.41;5072177;28;20241;-60
2022/10/16 08:21:39;;;;;;;5.83;5.13;;;;;;;22.86;43.60;100521.94;5072080;28;20227;-60
2022/10/16 08:24:06;;;;;;;5.13;4.73;;;;;;;22.86;43.35;100525.47;5071763;28;20249;-60
2022/10/16 08:26:33;;;;;;;5.23;4.90;;;;;;;22.72;43.98;100524.22;5071837;28;20649;-60
2022/10/16 08:28:59;;;;;;;5.97;5.40;;;;;;;22.47;44.15;100523.84;5062285;28;20246;-60
2022/10/16 08:31:27;;;;;;;11.60;5.67;;;;;;;22.66;43.65;100522.50;5052386;28;20263;-60
2022/10/16 08:33:54;;;;;;;6.97;5.50;;;;;;;22.73;43.53;100522.31;5052043;28;20200;-60
2022/10/16 08:36:21;;;;;;;11.37;9.20;;;;;;;22.68;43.44;100531.22;5052275;28;20611;-60
2022/10/16 08:38:49;;;;;;;6.07;5.17;;;;;;;22.80;42.71;100518.38;5051521;28;20326;-60
2022/10/16 08:41:27;;;;;;;7.77;5.03;;;;;;;22.92;41.89;100526.38;5051269;28;20311;-59
2022/10/16 08:44:12;;;;;;;6.07;4.23;;;;;;;22.59;42.15;100505.63;5051380;28;20698;-61
2022/10/16 08:46:52;;;;;;;5.50;5.00;;;;;;;22.83;42.93;100523.25;5051645;28;20185;-60
2022/10/16 08:49:19;;;;;;;5.80;5.30;;;;;;;23.15;41.24;100526.16;5051989;28;20251;-61
2022/10/16 08:51:49;;;;;;;9.00;4.47;;;;;;;23.27;41.07;100524.94;5051505;28;20197;-61
2022/10/16 08:54:28;;;;;;;5.60;4.40;;;;;;;23.40;40.22;100519.13;5051448;28;20668;-60
2022/10/16 08:56:56;;;;;;;4.67;4.27;;;;;;;23.63;38.42;100523.44;5051754;28;20189;-62
2022/10/16 08:59:22;;;;;;;5.60;4.53;;;;;;;23.41;38.83;100520.78;5064941;28;20188;-62
2022/10/16 09:01:52;;;;;;;4.37;3.90;;;;;;;23.47;41.28;100514.34;5071815;28;20230;-62
2022/10/16 09:04:51;;;;;;;6.70;4.10;;;;;;;23.79;41.09;100515.22;5064603;28;20234;-62
2022/10/16 09:07:26;;;;;;;4.83;4.43;;;;;;;24.03;40.09;100518.44;5050364;28;20623;-63
2022/10/16 09:10:06;;;;;;;5.80;4.13;;;;;;;24.37;39.81;100509.75;5061799;28;20177;-61
2022/10/16 09:12:39;;;;;;;4.37;4.03;;;;;;;24.62;38.60;100518.09;5050713;28;20681;-62
2022/10/16 09:15:21;;;;;;;5.57;4.23;;;;;;;24.68;38.95;100514.34;5051342;28;20252;-64
2022/10/16 09:17:57;;;;;;;4.40;3.87;;;;;;;25.14;38.70;100517.28;5056888;28;20188;-62
2022/10/16 09:20:33;;;;;;;6.13;3.97;;;;;;;25.34;36.10;100520.06;5051587;28;20191;-62
2022/10/16 09:23:17;;;;;;;4.70;3.90;;;;;;;25.31;34.97;100515.97;5051417;28;20222;-62
2022/10/16 09:25:48;;;;;;;5.13;4.13;;;;;;;24.99;34.69;100513.38;5061765;28;20271;-61
2022/10/16 09:28:16;;;;;;;7.27;4.47;;;;;;;24.86;35.39;100513.88;5072020;28;20588;-61
2022/10/16 09:30:43;;;;;;;4.10;3.80;;;;;;;24.55;35.13;100512.03;5071157;28;20194;-68
2022/10/16 09:33:13;;;;;;;4.17;3.80;;;;;;;24.48;35.94;100502.47;5071544;28;20199;-68
2022/10/16 09:35:42;;;;;;;5.93;3.97;;;;;;;24.47;35.98;100503.56;5071124;28;20729;-68
2022/10/16 09:38:09;;;;;;;4.43;4.07;;;;;;;24.31;36.42;100497.22;5071226;28;20256;-68
2022/10/16 09:40:38;;;;;;;4.77;3.70;;;;;;;24.27;35.32;100498.81;5071671;28;20201;-68
2022/10/16 09:43:20;;;;;;;3.70;3.50;;;;;;;24.22;35.46;100496.03;5071390;28;20203;-68
2022/10/16 09:45:55;;;;;;;5.07;4.10;;;;;;;24.04;35.34;100499.19;5071131;28;20187;-68
2022/10/16 09:48:24;;;;;;;4.70;3.80;;;;;;;23.89;35.74;100488.16;5071705;28;20190;-69
2022/10/16 09:50:58;;;;;;;4.57;3.90;;;;;;;23.79;34.48;100493.50;5071660;28;20668;-69
2022/10/16 09:53:24;;;;;;;3.77;3.47;;;;;;;23.71;34.34;100485.00;5074758;28;20204;-69
2022/10/16 09:55:52;;;;;;;3.90;3.60;;;;;;;23.59;34.78;100487.03;5070708;28;20202;-69
2022/10/16 09:58:19;;;;;;;3.87;3.43;;;;;;;23.51;35.17;100477.50;5058728;28;20254;-68
2022/10/16 10:00:51;;;;;;;4.17;3.87;;;;;;;23.61;35.10;100477.56;5060241;28;20203;-69
2022/10/16 10:03:35;;;;;;;4.30;4.00;;;;;;;23.50;35.67;100467.72;5065710;28;20185;-69
2022/10/16 10:06:08;;;;;;;5.60;3.90;;;;;;;23.58;35.30;100467.25;5063617;28;20180;-69
2022/10/16 10:08:35;;;;;;;4.77;4.27;;;;;;;23.58;35.33;100461.84;5062236;28;20190;-68
2022/10/16 10:11:01;;;;;;;5.17;4.30;;;;;;;23.53;35.49;100459.03;5061632;28;20224;-67
2022/10/16 10:13:28;;;;;;;6.50;4.00;;;;;;;23.39;35.73;100457.84;5056676;28;20197;-70
2022/10/16 10:15:55;;;;;;;4.30;3.90;;;;;;;23.22;35.53;100456.28;5056849;28;20197;-71
2022/10/16 10:18:26;;;;;;;4.13;3.63;;;;;;;23.16;34.78;100457.28;5051247;28;20198;-67
2022/10/16 10:20:59;;;;;;;4.67;3.80;;;;;;;23.05;35.10;100456.34;5067093;28;20189;-71
2022/10/16 10:23:29;;;;;;;4.10;3.80;;;;;;;23.05;35.07;100456.34;5058677;28;20274;-71
2022/10/16 10:26:03;;;;;;;5.77;4.10;;;;;;;23.16;34.43;100460.00;5056538;28;20195;-69
2022/10/16 10:28:52;;;;;;;6.07;3.67;;;;;;;23.14;34.19;100449.41;5063174;28;20193;-69
2022/10/16 10:31:27;;;;;;;4.53;4.17;;;;;;;23.14;34.38;100449.41;5053923;28;20197;-70
2022/10/16 10:34:02;;;;;;;5.20;3.50;;;;;;;23.26;34.05;100452.00;5059952;28;20619;-69
2022/10/16 10:36:36;;;;;;;4.03;3.60;;;;;;;23.37;33.76;100446.44;5054470;28;20185;-70
2022/10/16 10:39:09;;;;;;;4.17;3.63;;;;;;;23.52;33.78;100438.44;5062979;28;20635;-70
2022/10/16 10:42:01;;;;;;;3.93;3.67;;;;;;;23.63;33.14;100436.63;5059988;28;20263;-70
2022/10/16 10:44:44;;;;;;;3.97;3.67;;;;;;;23.79;32.95;100439.22;5064498;28;20205;-71
2022/10/16 10:47:21;;;;;;;5.40;3.53;;;;;;;23.68;33.33;100434.78;5052409;28;20192;-69
2022/10/16 10:49:58;;;;;;;7.20;3.60;;;;;;;23.70;33.11;100427.22;5070935;28;20188;-69
2022/10/16 10:52:37;;;;;;;3.70;3.40;;;;;;;23.56;32.74;100431.41;5060256;28;20241;-69
2022/10/16 10:55:16;;;;;;;3.73;3.50;;;;;;;23.64;32.83;100432.84;5051433;28;20632;-70
2022/10/16 10:57:57;;;;;;;5.93;3.87;;;;;;;23.69;33.59;100430.97;5051911;28;20704;-73
2022/10/16 11:00:32;;;;;;;3.80;3.50;;;;;;;23.73;33.02;100420.44;5053331;28;20243;-69
2022/10/16 11:03:10;;;;;;;4.23;4.03;;;;;;;23.57;33.55;100433.03;5052109;28;20733;-68
2022/10/16 11:05:47;;;;;;;4.03;3.63;;;;;;;23.33;33.13;100420.91;5053071;28;20207;-69
2022/10/16 11:08:20;;;;;;;3.87;3.57;;;;;;;23.30;33.62;100416.00;5053967;28;20629;-71
2022/10/16 11:10:53;;;;;;;4.27;3.97;;;;;;;23.28;33.02;100425.47;5052851;28;20294;-70
2022/10/16 11:13:33;;;;;;;15.50;5.20;;;;;;;23.07;36.41;100401.88;5053776;28;20197;-69
2022/10/16 11:16:04;;;;;;;4.83;4.53;;;;;;;23.25;37.19;100413.22;5052688;28;20690;-67
2022/10/16 11:18:38;;;;;;;4.07;3.73;;;;;;;23.34;33.55;100416.28;5051491;28;20733;-68
2022/10/16 11:21:11;;;;;;;4.93;3.70;;;;;;;23.46;34.14;100411.53;5037439;28;20667;-69
2022/10/16 11:23:43;;;;;;;4.33;4.03;;;;;;;23.28;34.70;100406.47;5055663;28;20242;-66
2022/10/16 11:26:18;;;;;;;5.63;3.47;;;;;;;23.47;34.56;100403.13;5050852;28;20197;-67
2022/10/16 11:28:48;;;;;;;10.90;3.90;;;;;;;23.69;35.00;100393.00;5063034;28;20183;-67
2022/10/16 11:31:19;;;;;;;5.43;3.70;;;;;;;23.90;36.26;100400.25;5056297;28;20295;-62